createdAt,value
2022-10-18T00:00:00.602Z,18.69
2022-10-18T00:02:32.775Z,18.67
2022-10-18T00:05:05.634Z,18.69
2022-10-18T00:07:37.554Z,18.65
2022-10-18T00:10:10.626Z,18.66
2022-10-18T00:12:42.954Z,18.56
2022-10-18T00:19:29.204Z,18.59
2022-10-18T00:22:01.486Z,18.60
2022-10-18T00:24:33.466Z,18.60
2022-10-18T00:27:05.405Z,18.62
2022-10-18T00:33:56.512Z,18.53
2022-10-18T00:36:31.477Z,18.58
2022-10-18T00:39:05.860Z,18.59
2022-10-18T00:41:38.457Z,18.57
2022-10-18T00:44:13.372Z,18.60
2022-10-18T00:46:48.659Z,18.60
2022-10-18T00:49:47.741Z,18.55
2022-10-18T00:52:28.977Z,18.59
2022-10-18T00:55:01.895Z,18.60
2022-10-18T00:57:34.840Z,18.60
2022-10-18T01:00:10.254Z,18.60
2022-10-18T01:02:46.325Z,18.60
2022-10-18T01:09:56.070Z,18.52
2022-10-18T01:12:59.305Z,18.52
2022-10-18T01:15:47.382Z,18.49
2022-10-18T01:18:31.185Z,18.53
2022-10-18T01:21:53.807Z,18.48
2022-10-18T01:24:53.377Z,18.50
2022-10-18T01:27:44.358Z,18.51
2022-10-18T01:30:37.924Z,18.52
2022-10-18T01:33:41.882Z,18.49
2022-10-18T01:36:36.055Z,18.50
2022-10-18T01:39:18.530Z,18.52
2022-10-18T01:41:53.814Z,18.54
2022-10-18T01:44:29.929Z,18.52
2022-10-18T01:47:03.983Z,18.53
2022-10-18T01:49:36.162Z,18.52
2022-10-18T01:52:14.157Z,18.54
2022-10-18T01:54:49.145Z,18.53
2022-10-18T01:57:44.536Z,18.52
2022-10-18T02:00:44.374Z,18.48
2022-10-18T02:03:25.846Z,18.51
2022-10-18T02:06:13.307Z,18.39
2022-10-18T02:08:59.614Z,18.48
2022-10-18T02:11:33.956Z,18.48
2022-10-18T02:14:14.329Z,18.46
2022-10-18T02:16:53.913Z,18.46
2022-10-18T02:19:43.997Z,18.44
2022-10-18T02:22:17.460Z,18.43
2022-10-18T02:24:55.167Z,18.45
2022-10-18T02:27:27.238Z,18.45
2022-10-18T02:29:59.428Z,18.41
2022-10-18T02:33:04.788Z,18.41
2022-10-18T02:35:44.719Z,18.41
2022-10-18T02:38:20.505Z,18.44
2022-10-18T02:40:52.942Z,18.42
2022-10-18T02:43:25.855Z,18.45
2022-10-18T02:45:57.952Z,18.45
2022-10-18T02:48:30.170Z,18.42
2022-10-18T02:51:02.043Z,18.41
2022-10-18T02:53:33.943Z,18.41
2022-10-18T02:56:06.411Z,18.40
2022-10-18T02:58:38.287Z,18.39
2022-10-18T03:01:10.239Z,18.39
2022-10-18T03:03:42.199Z,18.31
2022-10-18T03:06:14.081Z,18.36
2022-10-18T03:08:46.115Z,18.35
2022-10-18T03:11:18.081Z,18.34
2022-10-18T03:13:51.074Z,18.27
2022-10-18T03:16:23.127Z,18.33
2022-10-18T03:18:55.033Z,18.33
2022-10-18T03:21:26.993Z,18.31
2022-10-18T03:23:59.758Z,18.24
2022-10-18T03:26:31.660Z,18.29
2022-10-18T03:29:03.672Z,18.32
2022-10-18T03:31:35.785Z,18.29
2022-10-18T03:34:07.811Z,18.29
2022-10-18T03:36:41.381Z,18.25
2022-10-18T03:39:13.295Z,18.22
2022-10-18T03:41:45.202Z,18.22
2022-10-18T03:44:17.143Z,18.22
2022-10-18T03:46:49.109Z,18.24
2022-10-18T03:49:21.053Z,18.24
2022-10-18T03:51:53.026Z,18.26
2022-10-18T03:54:25.026Z,18.28
2022-10-18T03:56:56.937Z,18.22
2022-10-18T03:59:28.845Z,18.27
2022-10-18T04:02:00.843Z,18.26
2022-10-18T04:04:32.770Z,18.26
2022-10-18T04:07:04.662Z,18.25
2022-10-18T04:09:36.637Z,18.24
2022-10-18T04:12:08.522Z,18.23
2022-10-18T04:14:40.437Z,18.23
2022-10-18T04:17:12.343Z,18.23
2022-10-18T04:19:44.306Z,18.21
2022-10-18T04:22:16.475Z,18.20
2022-10-18T04:24:48.392Z,18.18
2022-10-18T04:27:20.477Z,18.18
2022-10-18T04:29:52.468Z,18.15
2022-10-18T04:32:24.634Z,18.10
2022-10-18T04:34:56.637Z,18.13
2022-10-18T04:37:28.865Z,18.12
2022-10-18T04:40:01.097Z,18.12
2022-10-18T04:42:33.036Z,18.12
2022-10-18T04:45:05.485Z,18.11
2022-10-18T04:47:37.814Z,18.10
2022-10-18T04:50:09.862Z,18.07
2022-10-18T04:52:41.802Z,17.99
2022-10-18T04:55:13.808Z,18.05
2022-10-18T04:57:45.842Z,18.05
2022-10-18T05:00:17.892Z,18.03
2022-10-18T05:02:49.761Z,18.01
2022-10-18T05:05:21.661Z,17.97
2022-10-18T05:07:53.554Z,17.97
2022-10-18T05:10:25.506Z,17.97
2022-10-18T05:12:57.380Z,17.96
2022-10-18T05:15:29.337Z,17.94
2022-10-18T05:18:01.248Z,17.94
2022-10-18T05:20:33.216Z,17.92
2022-10-18T05:23:05.088Z,17.90
2022-10-18T05:25:41.276Z,17.89
2022-10-18T05:28:38.152Z,17.88
2022-10-18T05:31:07.918Z,17.86
2022-10-18T05:33:40.044Z,17.88
2022-10-18T05:36:11.994Z,17.86
2022-10-18T05:38:45.412Z,17.86
2022-10-18T05:41:17.305Z,17.83
2022-10-18T05:43:49.214Z,17.79
2022-10-18T05:46:21.140Z,17.75
2022-10-18T05:48:53.023Z,17.69
2022-10-18T05:51:25.052Z,17.72
2022-10-18T05:53:57.075Z,17.70
2022-10-18T05:56:29.195Z,17.74
2022-10-18T05:59:01.264Z,17.72
2022-10-18T06:01:33.168Z,17.74
2022-10-18T06:04:05.473Z,17.73
2022-10-18T06:06:38.720Z,17.72
2022-10-18T06:09:10.700Z,17.70
2022-10-18T06:11:42.599Z,17.70
2022-10-18T06:14:14.511Z,17.70
2022-10-18T06:16:46.379Z,17.58
2022-10-18T06:19:18.452Z,17.61
2022-10-18T06:21:50.359Z,17.64
2022-10-18T06:24:22.427Z,17.66
2022-10-18T06:26:54.336Z,17.65
2022-10-18T06:29:26.254Z,17.65
2022-10-18T06:31:58.116Z,17.62
2022-10-18T06:34:30.089Z,17.66
2022-10-18T06:37:02.004Z,17.64
2022-10-18T06:39:34.202Z,17.64
2022-10-18T06:42:06.129Z,17.66
2022-10-18T06:44:37.979Z,17.69
2022-10-18T06:47:09.848Z,17.70
2022-10-18T06:49:41.814Z,17.71
2022-10-18T06:52:13.710Z,17.71
2022-10-18T06:54:45.621Z,17.72
2022-10-18T06:57:17.531Z,17.73
2022-10-18T06:59:50.110Z,17.73
2022-10-18T07:02:22.003Z,17.67
2022-10-18T07:04:54.162Z,17.74
2022-10-18T07:07:26.084Z,17.71
2022-10-18T07:09:57.959Z,17.73
2022-10-18T07:12:31.129Z,17.72
2022-10-18T07:15:08.267Z,17.70
2022-10-18T07:17:41.842Z,17.60
2022-10-18T07:20:13.793Z,17.60
2022-10-18T07:22:45.689Z,17.69
2022-10-18T07:25:17.722Z,17.68
2022-10-18T07:27:49.661Z,17.68
2022-10-18T07:30:21.638Z,17.70
2022-10-18T07:32:53.656Z,17.72
2022-10-18T07:35:25.515Z,17.76
2022-10-18T07:37:57.442Z,17.79
2022-10-18T07:40:29.308Z,17.80
2022-10-18T07:43:04.546Z,17.78
2022-10-18T07:48:09.690Z,17.81
2022-10-18T07:50:41.556Z,17.86
2022-10-18T07:53:13.602Z,17.86
2022-10-18T07:55:45.693Z,17.87
2022-10-18T07:58:17.617Z,17.86
2022-10-18T08:00:49.506Z,17.87
2022-10-18T08:03:21.473Z,17.84
2022-10-18T08:05:54.873Z,17.94
2022-10-18T08:08:27.164Z,17.97
2022-10-18T08:11:06.670Z,17.98
2022-10-18T08:13:38.875Z,17.96
2022-10-18T08:16:18.741Z,18.12
2022-10-18T08:18:51.254Z,18.21
2022-10-18T08:21:23.223Z,18.16
2022-10-18T08:23:55.341Z,18.28
2022-10-18T08:26:27.372Z,18.31
2022-10-18T08:29:17.687Z,18.32
2022-10-18T08:31:51.555Z,18.36
2022-10-18T08:34:23.522Z,18.42
2022-10-18T08:36:55.415Z,18.58
2022-10-18T08:39:27.396Z,18.63
2022-10-18T08:42:34.509Z,18.64
2022-10-18T08:45:18.031Z,18.66
2022-10-18T08:48:04.517Z,18.63
2022-10-18T08:50:38.471Z,18.71
2022-10-18T08:53:24.398Z,18.73
2022-10-18T08:56:18.898Z,18.71
2022-10-18T08:58:50.943Z,18.71
2022-10-18T09:01:56.728Z,18.71
2022-10-18T09:04:46.615Z,18.81
2022-10-18T09:07:41.922Z,18.82
2022-10-18T09:11:00.268Z,18.81
2022-10-18T09:13:59.710Z,18.84
2022-10-18T09:16:55.117Z,18.80
2022-10-18T09:19:48.415Z,18.90
2022-10-18T09:22:33.280Z,19.08
2022-10-18T09:25:51.547Z,19.27
2022-10-18T09:28:47.721Z,19.55
2022-10-18T09:31:35.509Z,19.73
2022-10-18T09:34:36.119Z,19.85
2022-10-18T09:37:19.209Z,20.00
2022-10-18T09:40:00.056Z,20.07
2022-10-18T09:42:39.495Z,20.23
2022-10-18T09:45:30.800Z,20.35
2022-10-18T09:48:31.245Z,20.43
2022-10-18T09:51:22.175Z,20.59
2022-10-18T09:54:35.991Z,20.71
2022-10-18T09:57:23.856Z,20.84
2022-10-18T09:59:57.866Z,20.99
2022-10-18T10:02:29.826Z,21.15
2022-10-18T10:05:01.793Z,21.28
2022-10-18T10:07:45.873Z,21.37
2022-10-18T10:10:25.483Z,21.47
2022-10-18T10:13:09.180Z,21.60
2022-10-18T10:15:54.754Z,21.70
2022-10-18T10:18:31.771Z,21.79
2022-10-18T10:21:15.036Z,21.87
2022-10-18T10:23:53.340Z,21.99
2022-10-18T10:26:32.149Z,21.97
2022-10-18T10:29:04.492Z,22.07
2022-10-18T10:31:37.723Z,22.12
2022-10-18T10:34:15.619Z,22.27
2022-10-18T10:36:55.375Z,22.34
2022-10-18T10:39:27.261Z,22.41
2022-10-18T10:42:01.275Z,22.44
2022-10-18T10:44:36.595Z,22.42
2022-10-18T10:47:08.516Z,22.44
2022-10-18T10:49:47.823Z,22.35
2022-10-18T10:52:28.292Z,22.53
2022-10-18T10:55:30.510Z,22.48
2022-10-18T10:57:56.714Z,22.52
2022-10-18T11:00:44.771Z,22.61
2022-10-18T11:03:29.123Z,22.79
2022-10-18T11:06:02.113Z,22.90
2022-10-18T11:08:42.119Z,23.00
2022-10-18T11:11:28.577Z,23.07
2022-10-18T11:14:30.340Z,23.20
2022-10-18T11:17:39.969Z,23.29
2022-10-18T11:20:51.666Z,23.36
2022-10-18T11:23:32.376Z,23.47
2022-10-18T11:26:13.584Z,23.43
2022-10-18T11:29:10.430Z,23.49
2022-10-18T11:32:13.679Z,23.31
2022-10-18T11:35:38.841Z,22.96
2022-10-18T11:38:29.040Z,22.97
2022-10-18T11:41:13.830Z,22.97
2022-10-18T11:44:03.624Z,22.94
2022-10-18T11:46:59.312Z,22.75
2022-10-18T11:49:52.702Z,22.70
2022-10-18T11:52:51.301Z,22.50
2022-10-18T11:55:47.467Z,22.44
2022-10-18T11:58:49.536Z,22.51
2022-10-18T12:02:21.776Z,22.57
2022-10-18T12:05:22.491Z,22.63
2022-10-18T12:08:18.701Z,22.59
2022-10-18T12:11:05.558Z,22.54
2022-10-18T12:13:49.918Z,22.39
2022-10-18T12:16:49.537Z,22.45
2022-10-18T12:19:29.430Z,22.65
2022-10-18T12:22:42.876Z,22.86
2022-10-18T12:25:18.155Z,23.08
2022-10-18T12:28:32.791Z,23.35
2022-10-18T12:31:19.600Z,23.64
2022-10-18T12:34:17.856Z,23.82
2022-10-18T12:36:55.609Z,24.04
2022-10-18T12:39:43.406Z,24.21
2022-10-18T12:42:26.825Z,24.36
2022-10-18T12:45:46.408Z,24.59
2022-10-18T12:48:42.575Z,24.77
2022-10-18T12:51:22.430Z,24.89
2022-10-18T12:54:12.461Z,24.72
2022-10-18T12:56:46.735Z,25.02
2022-10-18T12:59:18.796Z,25.14
2022-10-18T13:01:50.786Z,25.22
2022-10-18T13:04:28.950Z,25.34
2022-10-18T13:07:00.862Z,25.48
2022-10-18T13:09:36.399Z,25.42
2022-10-18T13:12:11.409Z,25.37
2022-10-18T13:15:27.709Z,25.40
2022-10-18T13:18:20.980Z,25.39
2022-10-18T13:21:17.196Z,25.32
2022-10-18T13:24:10.067Z,25.36
2022-10-18T13:27:35.481Z,25.58
2022-10-18T13:30:31.197Z,25.63
2022-10-18T13:33:25.946Z,25.57
2022-10-18T13:36:04.558Z,25.77
2022-10-18T13:39:02.594Z,25.86
2022-10-18T13:41:43.686Z,26.14
2022-10-18T13:44:37.858Z,26.33
2022-10-18T13:47:13.356Z,26.58
2022-10-18T13:49:50.769Z,26.62
2022-10-18T13:52:48.409Z,26.50
2022-10-18T13:55:55.891Z,26.52
2022-10-18T13:58:48.793Z,26.44
2022-10-18T14:01:49.510Z,26.07
2022-10-18T14:04:48.009Z,25.52
2022-10-18T14:07:21.172Z,25.02
2022-10-18T14:09:58.505Z,24.66
2022-10-18T14:12:48.898Z,24.52
2022-10-18T14:15:34.713Z,24.84
2022-10-18T14:18:22.037Z,25.29
2022-10-18T14:21:22.030Z,25.73
2022-10-18T14:23:54.839Z,26.17
2022-10-18T14:26:29.270Z,26.56
2022-10-18T14:29:22.968Z,26.86
2022-10-18T14:31:55.617Z,26.94
2022-10-18T14:34:27.718Z,27.08
2022-10-18T14:36:59.681Z,27.15
2022-10-18T14:39:32.840Z,27.34
2022-10-18T14:42:04.769Z,27.52
2022-10-18T14:44:36.711Z,27.64
2022-10-18T14:47:21.705Z,27.69
2022-10-18T14:49:54.598Z,27.87
2022-10-18T14:52:35.674Z,28.01
2022-10-18T14:55:28.696Z,28.05
2022-10-18T14:58:00.782Z,28.14
2022-10-18T15:00:37.809Z,28.26
2022-10-18T15:03:16.696Z,28.25
2022-10-18T15:06:00.152Z,28.29
2022-10-18T15:08:39.841Z,28.49
2022-10-18T15:11:16.042Z,28.60
2022-10-18T15:14:16.056Z,28.54
2022-10-18T15:16:52.401Z,28.55
2022-10-18T15:19:39.502Z,28.58
2022-10-18T15:25:18.611Z,28.99
2022-10-18T15:28:00.127Z,29.11
2022-10-18T15:30:43.023Z,29.09
2022-10-18T15:33:26.009Z,29.00
2022-10-18T15:36:20.497Z,29.02
2022-10-18T15:38:52.639Z,29.09
2022-10-18T15:41:54.647Z,28.91
2022-10-18T15:44:51.627Z,28.82
2022-10-18T15:47:24.992Z,28.83
2022-10-18T15:49:59.056Z,28.84
2022-10-18T15:52:43.134Z,28.70
2022-10-18T15:55:45.680Z,28.51
2022-10-18T15:58:28.870Z,28.44
2022-10-18T16:01:04.414Z,28.36
2022-10-18T16:03:36.969Z,28.23
2022-10-18T16:06:14.573Z,28.01
2022-10-18T16:08:53.144Z,27.46
2022-10-18T16:11:26.373Z,26.84
2022-10-18T16:14:00.405Z,26.24
2022-10-18T16:16:33.253Z,25.68
2022-10-18T16:19:05.270Z,25.23
2022-10-18T16:21:39.310Z,24.84
2022-10-18T16:24:11.651Z,24.50
2022-10-18T16:26:43.642Z,24.18
2022-10-18T16:29:25.583Z,23.89
2022-10-18T16:31:58.485Z,23.61
2022-10-18T16:34:32.209Z,23.36
2022-10-18T16:37:04.134Z,23.14
2022-10-18T16:39:36.012Z,22.96
2022-10-18T16:42:07.962Z,22.78
2022-10-18T16:44:39.928Z,22.62
2022-10-18T16:47:11.816Z,22.46
2022-10-18T16:49:45.182Z,22.29
2022-10-18T16:52:17.128Z,22.19
2022-10-18T16:54:49.029Z,22.44
2022-10-18T16:57:20.934Z,22.02
2022-10-18T16:59:52.888Z,21.85
2022-10-18T17:02:24.829Z,21.75
2022-10-18T17:04:56.703Z,21.64
2022-10-18T17:07:28.613Z,21.54
2022-10-18T17:10:00.497Z,21.47
2022-10-18T17:12:32.770Z,21.35
2022-10-18T17:15:05.760Z,21.29
2022-10-18T17:17:38.712Z,21.22
2022-10-18T17:20:24.097Z,21.11
2022-10-18T17:22:56.038Z,21.05
2022-10-18T17:25:28.027Z,20.90
2022-10-18T17:27:59.975Z,20.93
2022-10-18T17:30:33.398Z,20.87
2022-10-18T17:33:08.564Z,21.11
2022-10-18T17:35:41.546Z,20.77
2022-10-18T17:38:13.478Z,20.66
2022-10-18T17:40:45.347Z,20.57
2022-10-18T17:43:17.257Z,20.51
2022-10-18T17:45:58.861Z,20.40
2022-10-18T17:48:31.202Z,20.31
2022-10-18T17:51:15.793Z,20.32
2022-10-18T17:53:48.028Z,20.22
2022-10-18T17:56:19.971Z,20.22
2022-10-18T17:58:52.507Z,20.05
2022-10-18T18:01:25.517Z,20.00
2022-10-18T18:04:01.260Z,20.02
2022-10-18T18:06:39.022Z,19.95
2022-10-18T18:09:15.201Z,19.89
2022-10-18T18:11:50.834Z,19.82
2022-10-18T18:14:22.851Z,19.78
2022-10-18T18:16:55.048Z,19.64
2022-10-18T18:19:26.998Z,19.71
2022-10-18T18:21:59.479Z,19.65
2022-10-18T18:24:31.779Z,19.60
2022-10-18T18:27:03.746Z,19.54
2022-10-18T18:29:35.698Z,19.47
2022-10-18T18:32:07.928Z,19.42
2022-10-18T18:34:41.596Z,19.35
2022-10-18T18:37:13.522Z,19.31
2022-10-18T18:39:45.420Z,19.26
2022-10-18T18:42:17.317Z,19.22
2022-10-18T18:44:50.034Z,19.45
2022-10-18T18:47:23.497Z,19.08
2022-10-18T18:49:55.615Z,19.05
2022-10-18T18:52:27.525Z,18.96
2022-10-18T18:54:59.530Z,18.88
2022-10-18T18:57:31.660Z,18.85
2022-10-18T19:00:04.619Z,18.81
2022-10-18T19:02:36.528Z,18.74
2022-10-18T19:05:08.691Z,18.65
2022-10-18T19:07:40.679Z,18.66
2022-10-18T19:10:13.372Z,18.60
2022-10-18T19:12:45.332Z,18.54
2022-10-18T19:15:17.520Z,18.47
2022-10-18T19:17:49.750Z,18.45
2022-10-18T19:20:21.886Z,18.34
2022-10-18T19:22:53.887Z,18.12
2022-10-18T19:25:27.044Z,18.28
2022-10-18T19:27:59.070Z,18.19
2022-10-18T19:30:30.988Z,18.16
2022-10-18T19:33:04.659Z,18.12
2022-10-18T19:35:37.360Z,18.09
2022-10-18T19:38:09.248Z,18.04
2022-10-18T19:40:41.147Z,17.97
2022-10-18T19:43:13.025Z,17.95
2022-10-18T19:45:44.965Z,17.90
2022-10-18T19:48:16.943Z,17.82
2022-10-18T19:50:50.367Z,17.78
2022-10-18T19:53:22.565Z,17.73
2022-10-18T19:56:02.728Z,17.67
2022-10-18T19:58:34.912Z,17.56
2022-10-18T20:01:06.871Z,17.59
2022-10-18T20:03:38.887Z,17.56
2022-10-18T20:06:11.744Z,17.51
2022-10-18T20:08:43.957Z,17.51
2022-10-18T20:11:20.416Z,17.43
2022-10-18T20:13:52.864Z,17.37
2022-10-18T20:16:30.983Z,17.33
2022-10-18T20:19:06.993Z,17.28
2022-10-18T20:21:39.955Z,17.19
2022-10-18T20:24:12.421Z,17.16
2022-10-18T20:26:44.437Z,17.09
2022-10-18T20:29:16.508Z,17.03
2022-10-18T20:31:48.556Z,17.03
2022-10-18T20:34:25.152Z,17.00
2022-10-18T20:36:57.124Z,16.93
2022-10-18T20:39:29.044Z,16.90
2022-10-18T20:42:00.987Z,16.86
2022-10-18T20:44:33.983Z,16.78
2022-10-18T20:47:05.914Z,16.83
2022-10-18T20:49:38.123Z,16.78
2022-10-18T20:52:10.084Z,16.74
2022-10-18T20:54:42.203Z,16.67
2022-10-18T20:57:14.088Z,16.65
2022-10-18T20:59:46.162Z,16.59
2022-10-18T21:02:18.035Z,16.51
2022-10-18T21:04:49.972Z,16.49
2022-10-18T21:07:21.913Z,16.50
2022-10-18T21:09:53.827Z,16.45
2022-10-18T21:12:27.587Z,16.41
2022-10-18T21:15:00.975Z,16.38
2022-10-18T21:17:32.952Z,16.36
2022-10-18T21:20:06.111Z,16.31
2022-10-18T21:22:38.027Z,16.29
2022-10-18T21:25:10.723Z,16.26
2022-10-18T21:27:45.106Z,16.26
2022-10-18T21:30:17.191Z,16.21
2022-10-18T21:32:52.555Z,16.20
2022-10-18T21:35:24.665Z,16.16
2022-10-18T21:37:56.587Z,16.13
2022-10-18T21:40:28.708Z,16.09
2022-10-18T21:43:00.591Z,16.06
2022-10-18T21:45:32.459Z,16.03
2022-10-18T21:48:04.847Z,16.02
2022-10-18T21:50:36.785Z,15.98
2022-10-18T21:53:08.662Z,15.94
2022-10-18T21:55:40.633Z,15.91
2022-10-18T21:58:12.561Z,15.87
2022-10-18T22:00:44.449Z,15.87
2022-10-18T22:03:16.480Z,15.85
2022-10-18T22:06:09.276Z,15.76
2022-10-18T22:08:55.472Z,15.75
2022-10-18T22:11:40.133Z,15.68
2022-10-18T22:14:12.348Z,15.65
2022-10-18T22:16:44.280Z,15.64
2022-10-18T22:19:16.182Z,15.60
2022-10-18T22:21:48.745Z,15.59
2022-10-18T22:24:20.784Z,15.57
2022-10-18T22:26:52.648Z,15.55
2022-10-18T22:29:24.582Z,15.50
2022-10-18T22:31:56.524Z,15.43
2022-10-18T22:34:28.521Z,15.43
2022-10-18T22:37:00.398Z,15.42
2022-10-18T22:39:32.388Z,15.40
2022-10-18T22:42:06.118Z,15.38
2022-10-18T22:44:37.986Z,15.33
2022-10-18T22:47:09.891Z,15.31
2022-10-18T22:49:41.848Z,15.24
2022-10-18T22:52:13.728Z,15.20
2022-10-18T22:54:45.652Z,15.20
2022-10-18T22:57:17.529Z,15.17
2022-10-18T22:59:49.471Z,15.15
2022-10-18T23:02:21.394Z,15.11
2022-10-18T23:04:53.284Z,15.09
2022-10-18T23:07:25.168Z,15.04
2022-10-18T23:09:58.103Z,15.01
2022-10-18T23:12:30.162Z,14.97
2022-10-18T23:15:02.552Z,14.90
2022-10-18T23:17:34.689Z,14.91
2022-10-18T23:20:07.509Z,14.92
2022-10-18T23:22:39.345Z,14.87
2022-10-18T23:25:11.228Z,14.87
2022-10-18T23:30:19.859Z,14.80
2022-10-18T23:32:51.733Z,14.80
2022-10-18T23:35:23.801Z,14.76
2022-10-18T23:37:55.741Z,14.75
2022-10-18T23:40:27.768Z,14.73
2022-10-18T23:42:59.627Z,14.68
2022-10-18T23:45:31.515Z,14.65
2022-10-18T23:48:03.880Z,14.60
2022-10-18T23:50:35.788Z,14.58
2022-10-18T23:53:07.652Z,14.53
2022-10-18T23:55:39.760Z,14.52
2022-10-18T23:58:11.765Z,14.46
